createdAt,value
2022-08-19T00:02:24.096Z,13.15
2022-08-19T00:04:52.814Z,12.28
2022-08-19T00:07:21.229Z,12.88
2022-08-19T00:12:25.162Z,12.28
2022-08-19T00:14:54.487Z,12.90
2022-08-19T00:17:24.635Z,12.73
2022-08-19T00:22:27.725Z,12.15
2022-08-19T00:24:56.191Z,13.25
2022-08-19T00:30:00.321Z,14.03
2022-08-19T00:35:06.878Z,14.20
2022-08-19T00:37:34.520Z,14.05
2022-08-19T00:42:36.808Z,12.93
2022-08-19T00:47:41.013Z,12.82
2022-08-19T00:52:45.651Z,12.65
2022-08-19T00:55:17.487Z,11.78
2022-08-19T00:57:45.203Z,11.95
2022-08-19T01:02:48.008Z,12.20
2022-08-19T01:05:16.540Z,11.75
2022-08-19T01:10:20.575Z,11.38
2022-08-19T01:12:49.109Z,11.90
2022-08-19T01:15:17.412Z,9.78
2022-08-19T01:20:21.475Z,11.80
2022-08-19T01:22:49.962Z,9.33
2022-08-19T01:25:18.527Z,11.03
2022-08-19T01:30:22.547Z,10.70
2022-08-19T01:32:53.589Z,10.80
2022-08-19T01:35:19.404Z,11.38
2022-08-19T01:40:23.899Z,13.53
2022-08-19T01:42:52.536Z,11.93
2022-08-19T01:45:20.740Z,13.43
2022-08-19T01:50:24.697Z,13.60
2022-08-19T01:52:59.135Z,14.13
2022-08-19T01:55:21.593Z,14.40
2022-08-19T02:00:25.697Z,11.78
2022-08-19T02:05:29.677Z,12.18
2022-08-19T02:10:33.644Z,12.50
2022-08-19T02:13:02.054Z,12.15
2022-08-19T02:15:30.602Z,11.90
2022-08-19T02:20:34.598Z,11.43
2022-08-19T02:23:04.947Z,12.85
2022-08-19T02:25:31.739Z,11.93
2022-08-19T02:28:00.111Z,10.80
2022-08-19T02:33:04.200Z,12.53
2022-08-19T02:38:26.802Z,16.77
2022-08-19T02:43:34.456Z,12.68
2022-08-19T02:48:34.785Z,12.88
2022-08-19T02:53:38.752Z,11.18
2022-08-19T02:58:44.397Z,10.55
2022-08-19T03:03:48.361Z,13.85
2022-08-19T03:06:17.031Z,11.50
2022-08-19T03:11:20.977Z,12.60
2022-08-19T03:16:24.983Z,11.08
2022-08-19T03:21:28.964Z,10.53
2022-08-19T03:23:57.382Z,10.25
2022-08-19T03:26:25.826Z,11.70
2022-08-19T03:31:41.765Z,13.35
2022-08-19T03:33:58.473Z,10.05
2022-08-19T03:39:02.556Z,9.20
2022-08-19T03:44:06.511Z,13.70
2022-08-19T03:49:10.464Z,11.28
2022-08-19T03:54:14.447Z,10.90
2022-08-19T03:59:18.446Z,11.08
2022-08-19T04:04:22.855Z,10.75
2022-08-19T04:06:51.267Z,11.40
2022-08-19T04:09:19.701Z,13.35
2022-08-19T04:11:48.090Z,10.25
2022-08-19T04:16:52.015Z,11.95
2022-08-19T04:21:55.975Z,11.10
2022-08-19T04:24:24.404Z,12.05
2022-08-19T04:32:09.272Z,11.00
2022-08-19T04:37:10.192Z,12.18
2022-08-19T04:42:32.096Z,9.25
2022-08-19T04:45:00.551Z,9.50
2022-08-19T04:47:47.510Z,10.70
2022-08-19T04:52:33.052Z,10.20
2022-08-19T04:57:37.021Z,8.50
2022-08-19T05:00:06.374Z,8.53
2022-08-19T05:05:10.496Z,9.60
2022-08-19T05:07:38.875Z,8.33
2022-08-19T05:12:43.491Z,10.18
2022-08-19T05:15:12.605Z,10.93
2022-08-19T05:20:34.540Z,11.12
2022-08-19T05:23:12.887Z,10.00
2022-08-19T05:25:31.382Z,9.93
2022-08-19T05:27:59.766Z,9.98
2022-08-19T05:33:06.239Z,10.28
2022-08-19T05:35:34.785Z,8.75
2022-08-19T05:40:37.288Z,11.25
2022-08-19T05:43:05.747Z,10.58
2022-08-19T05:45:34.157Z,11.38
2022-08-19T05:50:38.145Z,11.48
2022-08-19T05:53:06.555Z,10.75
2022-08-19T05:55:34.989Z,12.33
2022-08-19T05:58:03.351Z,10.65
2022-08-19T06:00:31.693Z,11.28
2022-08-19T06:03:00.839Z,11.25
2022-08-19T06:08:05.017Z,10.60
2022-08-19T06:13:08.978Z,12.68
2022-08-19T06:15:37.390Z,13.10
2022-08-19T06:18:05.801Z,12.30
2022-08-19T06:23:09.751Z,15.80
2022-08-19T06:25:38.137Z,17.55
2022-08-19T06:30:42.080Z,15.98
2022-08-19T06:33:10.460Z,15.05
2022-08-19T06:35:41.052Z,13.38
2022-08-19T06:43:13.315Z,13.30
2022-08-19T06:45:41.729Z,14.35
2022-08-19T06:48:10.536Z,14.03
2022-08-19T06:50:41.714Z,13.55
2022-08-19T06:55:43.008Z,13.48
2022-08-19T06:58:11.434Z,11.88
2022-08-19T07:00:39.844Z,12.78
2022-08-19T07:03:08.922Z,10.25
2022-08-19T07:08:15.814Z,13.83
2022-08-19T07:13:24.579Z,11.90
2022-08-19T07:15:51.469Z,12.43
2022-08-19T07:21:13.461Z,13.10
2022-08-19T07:23:41.929Z,9.60
2022-08-19T07:26:10.397Z,15.83
2022-08-19T07:31:15.309Z,14.75
2022-08-19T07:33:43.523Z,13.35
2022-08-19T07:36:11.766Z,11.90
2022-08-19T07:41:15.731Z,11.63
2022-08-19T07:43:44.504Z,11.70
2022-08-19T07:48:41.273Z,13.32
2022-08-19T07:51:09.690Z,11.55
2022-08-19T07:53:39.882Z,14.75
2022-08-19T07:56:06.782Z,15.68
2022-08-19T07:58:35.245Z,15.08
2022-08-19T08:01:03.645Z,16.42
2022-08-19T08:03:52.113Z,18.95
2022-08-19T08:09:11.695Z,15.00
2022-08-19T08:11:40.066Z,14.28
2022-08-19T08:14:08.473Z,14.78
2022-08-19T08:16:39.639Z,17.55
2022-08-19T08:19:16.439Z,17.95
2022-08-19T08:24:10.736Z,11.65
2022-08-19T08:26:39.151Z,16.35
2022-08-19T08:29:12.356Z,13.60
2022-08-19T08:31:36.248Z,14.23
2022-08-19T08:34:04.619Z,14.40
2022-08-19T08:39:08.599Z,12.88
2022-08-19T08:41:37.270Z,13.98
2022-08-19T08:44:05.720Z,12.73
2022-08-19T08:46:35.458Z,14.05
2022-08-19T08:49:05.155Z,14.28
2022-08-19T08:54:10.233Z,11.10
2022-08-19T08:56:40.106Z,11.90
2022-08-19T08:59:08.549Z,11.57
2022-08-19T09:01:36.979Z,10.40
2022-08-19T09:04:05.352Z,11.45
2022-08-19T09:06:34.515Z,10.80
2022-08-19T09:11:42.442Z,10.58
2022-08-19T09:14:29.244Z,10.32
2022-08-19T09:16:38.723Z,10.10
2022-08-19T09:19:07.102Z,12.05
2022-08-19T09:24:11.050Z,8.90
2022-08-19T09:26:48.527Z,9.40
2022-08-19T09:29:07.867Z,7.87
2022-08-19T09:31:36.299Z,10.30
2022-08-19T09:34:05.860Z,7.55
2022-08-19T09:39:14.876Z,8.28
2022-08-19T09:41:37.532Z,8.20
2022-08-19T09:44:05.989Z,9.08
2022-08-19T09:46:34.368Z,8.45
2022-08-19T09:49:02.999Z,9.90
2022-08-19T09:54:06.781Z,8.25
2022-08-19T09:56:35.172Z,10.95
2022-08-19T09:59:03.700Z,7.85
2022-08-19T10:01:32.192Z,8.23
2022-08-19T10:04:00.482Z,10.15
2022-08-19T10:09:04.871Z,7.45
2022-08-19T10:11:39.485Z,8.65
2022-08-19T10:14:01.679Z,8.98
2022-08-19T10:16:30.389Z,7.22
2022-08-19T10:18:59.010Z,7.25
2022-08-19T10:24:02.962Z,7.25
2022-08-19T10:26:31.509Z,6.17
2022-08-19T10:28:59.937Z,7.80
2022-08-19T10:32:01.296Z,7.05
2022-08-19T10:33:59.083Z,8.33
2022-08-19T10:36:25.256Z,7.22
2022-08-19T10:38:56.829Z,6.80
2022-08-19T10:41:22.118Z,6.72
2022-08-19T10:43:50.478Z,5.90
2022-08-19T10:46:18.863Z,8.25
2022-08-19T10:48:47.295Z,5.80
2022-08-19T10:51:33.696Z,7.03
2022-08-19T10:54:02.108Z,6.12
2022-08-19T10:56:48.459Z,7.33
2022-08-19T10:59:16.876Z,6.00
2022-08-19T11:01:47.510Z,7.55
2022-08-19T11:04:13.632Z,6.15
2022-08-19T11:06:42.024Z,5.22
2022-08-19T11:09:10.442Z,6.80
2022-08-19T11:11:39.477Z,7.03
2022-08-19T11:14:07.269Z,6.90
2022-08-19T11:16:35.693Z,5.83
2022-08-19T11:19:04.142Z,5.15
2022-08-19T11:21:32.790Z,5.50
2022-08-19T11:26:36.785Z,5.83
2022-08-19T11:29:05.175Z,7.90
2022-08-19T11:31:33.596Z,7.75
2022-08-19T11:34:01.975Z,8.00
2022-08-19T11:36:32.899Z,8.23
2022-08-19T11:39:00.507Z,6.12
2022-08-19T11:41:27.249Z,8.60
2022-08-19T11:43:55.673Z,5.78
2022-08-19T11:46:24.050Z,5.47
2022-08-19T11:48:52.483Z,6.78
2022-08-19T11:51:20.907Z,6.92
2022-08-19T11:53:49.326Z,4.83
2022-08-19T11:56:17.715Z,5.80
2022-08-19T11:58:46.092Z,4.40
2022-08-19T12:01:15.023Z,5.80
2022-08-19T12:03:43.478Z,4.10
2022-08-19T12:06:11.771Z,6.40
2022-08-19T12:08:40.172Z,5.70
2022-08-19T12:13:44.843Z,5.12
2022-08-19T12:16:13.222Z,6.85
2022-08-19T12:18:42.187Z,4.97
2022-08-19T12:21:11.591Z,7.28
2022-08-19T12:23:39.929Z,4.67
2022-08-19T12:26:08.327Z,5.58
2022-08-19T12:28:36.737Z,6.37
2022-08-19T12:31:05.133Z,4.58
2022-08-19T12:33:35.961Z,6.35
2022-08-19T12:36:02.442Z,4.10
2022-08-19T12:38:30.957Z,3.60
2022-08-19T12:41:01.085Z,3.70
2022-08-19T12:43:27.802Z,4.50
2022-08-19T12:45:56.135Z,4.78
2022-08-19T12:48:34.684Z,4.65
2022-08-19T12:50:52.865Z,4.42
2022-08-19T12:53:21.189Z,5.28
2022-08-19T12:55:49.520Z,4.40
2022-08-19T12:58:17.916Z,6.85
2022-08-19T13:00:48.063Z,4.60
2022-08-19T13:03:14.709Z,5.12
2022-08-19T13:05:43.210Z,4.47
2022-08-19T13:08:14.496Z,7.65
2022-08-19T13:10:40.527Z,4.78
2022-08-19T13:13:09.198Z,4.95
2022-08-19T13:15:37.498Z,3.65
2022-08-19T13:18:06.221Z,6.30
2022-08-19T13:20:34.617Z,5.67
2022-08-19T13:23:05.475Z,4.60
2022-08-19T13:25:31.442Z,3.83
2022-08-19T13:27:59.897Z,5.00
2022-08-19T13:30:46.292Z,5.05
2022-08-19T13:33:16.280Z,3.30
2022-08-19T13:35:44.083Z,4.85
2022-08-19T13:38:12.506Z,5.65
2022-08-19T13:40:41.217Z,3.62
2022-08-19T13:43:13.600Z,4.40
2022-08-19T13:45:37.833Z,3.60
2022-08-19T13:48:06.916Z,4.08
2022-08-19T13:50:35.295Z,5.25
2022-08-19T13:53:03.704Z,4.25
2022-08-19T13:55:32.111Z,3.00
2022-08-19T13:58:00.549Z,4.20
2022-08-19T14:00:31.933Z,8.70
2022-08-19T14:03:00.356Z,5.45
2022-08-19T14:05:28.889Z,5.08
2022-08-19T14:07:57.340Z,3.95
2022-08-19T14:10:25.727Z,3.40
2022-08-19T14:12:55.024Z,3.30
2022-08-19T14:15:24.604Z,4.80
2022-08-19T14:17:53.175Z,4.03
2022-08-19T14:20:21.499Z,3.30
2022-08-19T14:22:49.893Z,3.85
2022-08-19T14:25:18.317Z,5.03
2022-08-19T14:27:46.734Z,5.15
2022-08-19T14:30:15.668Z,3.83
2022-08-19T14:32:44.734Z,5.78
2022-08-19T14:35:13.660Z,4.97
2022-08-19T14:37:45.337Z,4.60
2022-08-19T14:40:11.733Z,4.30
2022-08-19T14:42:42.511Z,3.25
2022-08-19T14:45:09.820Z,3.80
2022-08-19T14:47:38.254Z,4.28
2022-08-19T14:50:07.833Z,3.35
2022-08-19T14:52:36.238Z,3.22
2022-08-19T14:57:40.360Z,5.58
2022-08-19T15:00:10.477Z,4.42
2022-08-19T15:02:38.930Z,3.70
2022-08-19T15:05:07.862Z,3.80
2022-08-19T15:07:36.265Z,3.72
2022-08-19T15:10:04.972Z,7.75
2022-08-19T15:12:33.350Z,3.47
2022-08-19T15:15:01.782Z,4.08
2022-08-19T15:17:45.840Z,4.33
2022-08-19T15:19:59.462Z,4.53
2022-08-19T15:22:27.832Z,3.70
2022-08-19T15:24:56.213Z,4.90
2022-08-19T15:27:24.652Z,4.20
2022-08-19T15:29:56.529Z,3.70
2022-08-19T15:32:21.428Z,4.50
2022-08-19T15:34:50.069Z,3.95
2022-08-19T15:37:18.393Z,4.05
2022-08-19T15:39:46.884Z,5.00
2022-08-19T15:42:15.149Z,6.85
2022-08-19T15:44:43.527Z,5.75
2022-08-19T15:47:11.896Z,4.22
2022-08-19T15:49:40.354Z,4.50
2022-08-19T15:52:08.754Z,4.12
2022-08-19T15:54:37.147Z,4.17
2022-08-19T15:57:23.675Z,6.12
2022-08-19T16:00:26.854Z,3.90
2022-08-19T16:05:48.314Z,5.55
2022-08-19T16:08:18.280Z,4.53
2022-08-19T16:10:45.106Z,5.65
2022-08-19T16:13:13.453Z,5.60
2022-08-19T16:15:41.955Z,5.35
2022-08-19T16:18:10.314Z,4.12
2022-08-19T16:20:38.848Z,4.35
2022-08-19T16:23:07.124Z,4.42
2022-08-19T16:25:35.498Z,5.90
2022-08-19T16:28:07.147Z,3.50
2022-08-19T16:30:32.627Z,2.98
2022-08-19T16:33:00.989Z,4.17
2022-08-19T16:35:29.374Z,3.55
2022-08-19T16:38:00.114Z,3.72
2022-08-19T16:40:26.150Z,4.22
2022-08-19T16:42:54.529Z,3.45
2022-08-19T16:45:23.150Z,5.00
2022-08-19T16:47:51.536Z,4.00
2022-08-19T16:50:29.215Z,4.70
2022-08-19T16:52:48.425Z,4.00
2022-08-19T16:55:16.811Z,2.52
2022-08-19T16:57:45.212Z,5.08
2022-08-19T17:00:14.692Z,3.02
2022-08-19T17:02:43.193Z,5.78
2022-08-19T17:07:47.156Z,5.85
2022-08-19T17:10:15.539Z,3.77
2022-08-19T17:12:43.953Z,3.20
2022-08-19T17:15:12.317Z,4.75
2022-08-19T17:17:40.717Z,5.85
2022-08-19T17:20:09.830Z,3.65
2022-08-19T17:22:40.592Z,5.33
2022-08-19T17:25:07.641Z,4.15
2022-08-19T17:27:36.026Z,4.22
2022-08-19T17:30:05.115Z,4.08
2022-08-19T17:32:33.914Z,6.53
2022-08-19T17:35:02.286Z,3.12
2022-08-19T17:37:30.696Z,3.25
2022-08-19T17:39:59.193Z,4.37
2022-08-19T17:42:27.578Z,3.20
2022-08-19T17:44:58.789Z,4.47
2022-08-19T17:47:24.638Z,3.85
2022-08-19T17:49:54.650Z,7.60
2022-08-19T17:52:21.488Z,5.35
2022-08-19T17:54:49.883Z,4.08
2022-08-19T17:57:18.260Z,8.28
2022-08-19T17:59:47.657Z,3.65
2022-08-19T18:02:19.862Z,3.90
2022-08-19T18:04:48.672Z,4.47
2022-08-19T18:07:12.896Z,3.42
2022-08-19T18:09:42.757Z,5.85
2022-08-19T18:12:09.760Z,3.85
2022-08-19T18:14:38.191Z,4.25
2022-08-19T18:17:06.726Z,4.72
2022-08-19T18:19:41.970Z,4.80
2022-08-19T18:22:03.603Z,4.87
2022-08-19T18:24:31.945Z,3.92
2022-08-19T18:27:00.383Z,4.15
2022-08-19T18:29:28.796Z,3.70
2022-08-19T18:31:59.604Z,3.50
2022-08-19T18:34:25.599Z,3.83
2022-08-19T18:36:54.318Z,4.12
2022-08-19T18:39:40.111Z,3.70
2022-08-19T18:42:26.748Z,3.10
2022-08-19T18:45:13.068Z,4.78
2022-08-19T18:47:59.572Z,3.35
2022-08-19T18:50:28.050Z,4.97
2022-08-19T18:52:56.423Z,4.25
2022-08-19T18:55:24.828Z,3.72
2022-08-19T18:57:53.490Z,3.45
2022-08-19T19:00:23.384Z,4.67
2022-08-19T19:02:51.776Z,4.58
2022-08-19T19:05:18.579Z,4.37
2022-08-19T19:07:46.972Z,4.00
2022-08-19T19:10:15.395Z,3.95
2022-08-19T19:12:44.850Z,5.05
2022-08-19T19:15:13.249Z,4.12
2022-08-19T19:17:41.637Z,4.15
2022-08-19T19:20:10.225Z,7.30
2022-08-19T19:22:38.708Z,4.67
2022-08-19T19:27:43.028Z,5.35
2022-08-19T19:30:12.214Z,4.33
2022-08-19T19:32:40.700Z,4.37
2022-08-19T19:35:09.931Z,5.62
2022-08-19T19:37:38.281Z,6.60
2022-08-19T19:40:07.706Z,5.45
2022-08-19T19:42:36.075Z,4.30
2022-08-19T19:45:04.642Z,4.60
2022-08-19T19:47:32.995Z,5.67
2022-08-19T19:50:14.356Z,5.78
2022-08-19T19:52:29.824Z,5.53
2022-08-19T19:54:58.207Z,6.08
2022-08-19T19:57:26.913Z,5.78
2022-08-19T19:59:55.188Z,5.30
2022-08-19T20:02:23.581Z,6.30
2022-08-19T20:04:51.951Z,6.22
2022-08-19T20:07:22.020Z,6.37
2022-08-19T20:09:59.763Z,6.95
2022-08-19T20:12:18.795Z,6.17
2022-08-19T20:14:47.211Z,7.22
2022-08-19T20:17:15.559Z,7.25
2022-08-19T20:19:43.992Z,4.92
2022-08-19T20:22:12.389Z,4.97
2022-08-19T20:24:40.820Z,8.30
2022-08-19T20:27:10.753Z,6.05
2022-08-19T20:29:40.453Z,4.83
2022-08-19T20:34:41.932Z,5.80
2022-08-19T20:37:10.344Z,5.20
2022-08-19T20:39:38.979Z,7.17
2022-08-19T20:42:07.516Z,8.65
2022-08-19T20:44:36.030Z,10.13
2022-08-19T20:47:04.540Z,6.15
2022-08-19T20:49:32.951Z,8.25
2022-08-19T20:52:01.363Z,5.10
2022-08-19T20:54:29.779Z,4.95
2022-08-19T20:56:58.176Z,4.60
2022-08-19T20:59:26.872Z,5.50
2022-08-19T21:01:55.249Z,5.50
2022-08-19T21:04:23.642Z,6.53
2022-08-19T21:06:52.061Z,5.72
2022-08-19T21:09:20.499Z,4.70
2022-08-19T21:11:48.867Z,4.90
2022-08-19T21:14:17.249Z,5.30
2022-08-19T21:16:45.632Z,4.87
2022-08-19T21:19:14.079Z,6.55
2022-08-19T21:21:44.871Z,4.53
2022-08-19T21:24:10.817Z,5.97
2022-08-19T21:26:39.331Z,5.55
2022-08-19T21:29:07.732Z,6.45
2022-08-19T21:34:11.707Z,7.40
2022-08-19T21:36:40.088Z,7.80
2022-08-19T21:39:08.467Z,7.70
2022-08-19T21:46:38.033Z,5.58
2022-08-19T21:49:06.381Z,6.45
2022-08-19T21:51:34.793Z,8.18
2022-08-19T21:54:03.185Z,6.37
2022-08-19T21:56:31.607Z,4.72
2022-08-19T21:59:02.478Z,5.37
2022-08-19T22:01:28.455Z,4.92
2022-08-19T22:03:56.822Z,6.97
2022-08-19T22:06:26.149Z,6.78
2022-08-19T22:08:54.634Z,5.30
2022-08-19T22:11:23.062Z,4.90
2022-08-19T22:13:51.806Z,4.92
2022-08-19T22:16:20.307Z,5.97
2022-08-19T22:18:48.707Z,4.90
2022-08-19T22:21:20.196Z,5.33
2022-08-19T22:23:45.499Z,4.50
2022-08-19T22:26:13.869Z,6.30
2022-08-19T22:28:43.605Z,4.78
2022-08-19T22:31:12.030Z,6.90
2022-08-19T22:33:40.403Z,4.60
2022-08-19T22:36:09.360Z,4.80
2022-08-19T22:38:37.762Z,5.10
2022-08-19T22:43:41.827Z,6.55
2022-08-19T22:46:17.412Z,6.33
2022-08-19T22:48:38.677Z,6.35
2022-08-19T22:51:25.214Z,6.65
2022-08-19T22:53:53.611Z,8.60
2022-08-19T22:56:21.995Z,8.93
2022-08-19T22:58:50.776Z,9.25
2022-08-19T23:01:27.175Z,8.03
2022-08-19T23:03:47.736Z,6.53
2022-08-19T23:06:16.103Z,8.05
2022-08-19T23:08:44.507Z,6.00
2022-08-19T23:11:12.902Z,5.15
2022-08-19T23:13:41.350Z,5.12
2022-08-19T23:16:09.803Z,4.80
2022-08-19T23:18:38.198Z,5.70
2022-08-19T23:21:07.235Z,5.12
2022-08-19T23:23:35.575Z,5.08
2022-08-19T23:26:03.974Z,5.25
2022-08-19T23:28:50.596Z,5.40
2022-08-19T23:31:19.014Z,5.03
2022-08-19T23:33:51.908Z,6.83
2022-08-19T23:36:15.904Z,5.08
2022-08-19T23:38:44.330Z,5.47
2022-08-19T23:41:14.480Z,7.55
2022-08-19T23:43:41.199Z,6.35
2022-08-19T23:46:10.549Z,5.72
2022-08-19T23:48:38.017Z,7.33
2022-08-19T23:51:06.750Z,5.95
2022-08-19T23:53:35.162Z,5.95
2022-08-19T23:56:03.702Z,6.67
2022-08-19T23:58:32.276Z,6.33
